Time;durP1;ratioP1;P1;durP2;ratioP2;P2;SDS_P1;SDS_P2;PMS_P1;PMS_P2;Temp;Humidity;BMP_temperature;BMP_pressure;BME280_temperature;BME280_humidity;BME280_pressure;Samples;Min_cycle;Max_cycle;Signal;HPM_P1;HPM_P2
2022/01/28 00:02:30;;;;;;;;;;;;;;;9.43;60.44;101852.78;5022045;28;6893;-70
2022/01/28 00:04:55;;;;;;;;;;;;;;;9.40;60.19;101852.56;5043725;28;7077;-70
2022/01/28 00:07:20;;;;;;;;;;;;;;;9.37;59.61;101857.47;5023991;28;6811;-70
2022/01/28 00:09:46;;;;;;;;;;;;;;;9.31;59.43;101851.09;5029850;28;7900;-70
2022/01/28 00:12:13;;;;;;;;;;;;;;;9.29;59.74;101856.84;5038392;28;6875;-70
2022/01/28 00:14:51;;;;;;;;;;;;;;;9.25;59.18;101868.53;5062894;28;6803;-70
2022/01/28 00:38:55;;;;;;;;;;;;;;;9.03;60.48;101935.94;5060510;28;6899;-70
2022/01/28 00:41:21;;;;;;;;;;;;;;;9.03;59.71;101943.59;5037579;28;7000;-70
2022/01/28 00:43:47;;;;;;;;;;;;;;;9.05;59.98;101948.84;5044394;28;8067;-70
2022/01/28 00:46:13;;;;;;;;;;;;;;;9.05;59.36;101953.97;5024114;28;6807;-70
2022/01/28 00:48:39;;;;;;;;;;;;;;;9.06;59.19;101955.75;5057177;28;6875;-70
2022/01/28 00:51:05;;;;;;;;;;;;;;;9.04;60.45;101962.41;5030157;28;6920;-70
2022/01/28 00:53:31;;;;;;;;;;;;;;;9.02;60.20;101962.28;5028863;28;6912;-70
2022/01/28 00:55:57;;;;;;;;;;;;;;;9.00;60.55;101966.38;5029207;28;6783;-70
2022/01/28 00:58:24;;;;;;;;;;;;;;;8.99;59.31;101969.72;5023051;28;7271;-70
2022/01/28 01:00:51;;;;;;;;;;;;;;;8.98;59.66;101970.50;5020165;28;7269;-70
2022/01/28 01:03:17;;;;;;;;;;;;;;;8.96;59.99;101964.34;5027513;28;7007;-70
2022/01/28 01:05:43;;;;;;;;;;;;;;;8.95;59.82;101971.91;5041207;28;6775;-70
2022/01/28 01:08:08;;;;;;;;;;;;;;;8.93;59.71;101965.75;5025953;28;7973;-70
2022/01/28 01:10:35;;;;;;;;;;;;;;;8.90;59.24;101976.66;5003978;28;6935;-70
2022/01/28 01:13:02;;;;;;;;;;;;;;;8.87;59.61;101973.81;5040577;28;6796;-70
2022/01/28 01:15:35;;;;;;;;;;;;;;;8.84;60.16;101974.50;5034668;28;6816;-70
2022/01/28 01:23:11;;;;;;;;;;;;;;;8.74;59.44;101998.41;5039118;28;6867;-70
2022/01/28 01:25:49;;;;;;;;;;;;;;;8.71;58.94;101995.63;5025415;28;6816;-70
2022/01/28 01:28:18;;;;;;;;;;;;;;;8.67;58.70;101996.13;5005566;28;6808;-70
2022/01/28 01:30:45;;;;;;;;;;;;;;;8.65;59.17;102000.22;5024366;28;7327;-70
2022/01/28 01:33:12;;;;;;;;;;;;;;;8.63;59.28;102008.53;5025525;28;6886;-70
2022/01/28 01:35:40;;;;;;;;;;;;;;;8.60;59.73;102009.19;5019110;28;6812;-70
2022/01/28 01:38:09;;;;;;;;;;;;;;;8.57;59.26;102002.16;5018901;28;7060;-70
2022/01/28 01:40:46;;;;;;;;;;;;;;;8.54;59.23;102013.78;5021645;28;7284;-70
2022/01/28 01:43:26;;;;;;;;;;;;;;;8.52;59.61;102020.44;5020248;28;6894;-70
2022/01/28 01:46:08;;;;;;;;;;;;;;;8.50;60.21;102024.47;5020635;28;6980;-70
2022/01/28 01:54:03;;;;;;;;;;;;;;;8.43;59.90;102035.84;5038759;28;6824;-70
2022/01/28 01:56:30;;;;;;;;;;;;;;;8.42;59.60;102028.97;5020652;28;7295;-70
2022/01/28 01:58:58;;;;;;;;;;;;;;;8.40;60.01;102031.41;5020251;28;6796;-70
2022/01/28 02:01:23;;;;;;;;;;;;;;;8.41;60.23;102038.31;4996030;28;6807;-70
2022/01/28 02:03:49;;;;;;;;;;;;;;;8.42;60.36;102044.28;5022598;28;6867;-70
2022/01/28 02:06:20;;;;;;;;;;;;;;;8.41;59.44;102043.41;5010091;28;6784;-70
2022/01/28 02:08:47;;;;;;;;;;;;;;;8.41;59.82;102045.97;5022039;28;8202;-70
2022/01/28 02:11:13;;;;;;;;;;;;;;;8.41;60.13;102050.19;5035127;28;7253;-70
2022/01/28 02:13:40;;;;;;;;;;;;;;;8.41;60.64;102042.50;5009574;28;6967;-70
2022/01/28 02:16:07;;;;;;;;;;;;;;;8.42;59.52;102052.88;5017629;28;6788;-70
2022/01/28 02:18:34;;;;;;;;;;;;;;;8.42;59.24;102047.75;5001680;28;6788;-70
2022/01/28 02:21:11;;;;;;;;;;;;;;;8.42;59.42;102055.44;5039039;28;6951;-70
2022/01/28 02:23:38;;;;;;;;;;;;;;;8.43;60.09;102046.09;5026513;28;6832;-70
2022/01/28 02:26:06;;;;;;;;;;;;;;;8.42;59.43;102047.75;5022590;28;6803;-70
2022/01/28 02:28:36;;;;;;;;;;;;;;;8.42;60.40;102047.75;5035882;28;7675;-70
2022/01/28 02:31:04;;;;;;;;;;;;;;;8.42;59.53;102052.88;5033679;28;7143;-70
2022/01/28 02:33:30;;;;;;;;;;;;;;;8.40;59.81;102054.41;5024930;28;7010;-70
2022/01/28 02:36:03;;;;;;;;;;;;;;;8.40;60.08;102061.16;5017414;28;7208;-70
2022/01/28 02:38:30;;;;;;;;;;;;;;;8.38;59.88;102057.59;5017308;28;6907;-70
2022/01/28 02:40:58;;;;;;;;;;;;;;;8.35;59.97;102055.69;5018710;28;6941;-70
2022/01/28 02:45:55;;;;;;;;;;;;;;;8.29;59.69;102050.94;5054747;28;6913;-70
2022/01/28 02:48:25;;;;;;;;;;;;;;;8.26;58.97;102057.47;5032431;28;7070;-70
2022/01/28 02:53:24;;;;;;;;;;;;;;;8.19;59.76;102066.28;5019912;28;6970;-70
2022/01/28 02:55:57;;;;;;;;;;;;;;;8.15;59.27;102062.56;5035462;28;6823;-70
2022/01/28 02:58:25;;;;;;;;;;;;;;;8.13;59.97;102065.75;5028542;28;6843;-70
2022/01/28 03:00:56;;;;;;;;;;;;;;;8.08;59.99;102067.91;5019492;28;7856;-70
2022/01/28 03:03:24;;;;;;;;;;;;;;;8.06;59.30;102069.44;5023705;28;8443;-70
2022/01/28 03:05:52;;;;;;;;;;;;;;;8.02;60.16;102068.28;5037758;28;6828;-70
2022/01/28 03:08:22;;;;;;;;;;;;;;;8.01;60.02;102069.03;5012492;28;6799;-70
2022/01/28 03:16:12;;;;;;;;;;;;;;;7.94;59.62;102097.38;5039736;28;6923;-70
2022/01/28 03:18:49;;;;;;;;;;;;;;;7.92;60.33;102097.25;5042140;28;7208;-70
2022/01/28 03:21:26;;;;;;;;;;;;;;;7.89;60.11;102096.97;5008569;28;6896;-70
2022/01/28 03:23:53;;;;;;;;;;;;;;;7.88;60.67;102100.28;5033657;28;6828;-70
2022/01/28 03:26:20;;;;;;;;;;;;;;;7.86;60.45;102100.91;5028639;28;6807;-70
2022/01/28 03:28:46;;;;;;;;;;;;;;;7.83;60.95;102106.69;5033206;28;6970;-70
2022/01/28 03:31:11;;;;;;;;;;;;;;;7.82;61.19;102097.19;5017673;28;6942;-71
2022/01/28 03:33:37;;;;;;;;;;;;;;;7.81;60.16;102097.09;5010740;28;6859;-71
2022/01/28 03:36:08;;;;;;;;;;;;;;;7.81;59.97;102099.63;5027243;28;6792;-71
2022/01/28 03:38:34;;;;;;;;;;;;;;;7.82;60.72;102098.88;5026798;28;6831;-71
2022/01/28 03:41:00;;;;;;;;;;;;;;;7.82;60.20;102098.88;5020741;28;7570;-71
2022/01/28 03:43:26;;;;;;;;;;;;;;;7.83;61.14;102106.69;5027837;28;6840;-71
2022/01/28 03:45:52;;;;;;;;;;;;;;;7.82;60.98;102107.41;5027001;28;6823;-71
2022/01/28 03:48:18;;;;;;;;;;;;;;;7.80;60.61;102111.50;5034641;28;6882;-71
2022/01/28 03:50:44;;;;;;;;;;;;;;;7.79;61.05;102114.81;5040834;28;6799;-71
2022/01/28 03:53:10;;;;;;;;;;;;;;;7.79;60.60;102114.81;5028422;28;7184;-71
2022/01/28 03:55:36;;;;;;;;;;;;;;;7.77;60.31;102117.25;5013734;28;6918;-71
2022/01/28 03:58:03;;;;;;;;;;;;;;;7.79;60.44;102117.38;5019039;28;6974;-71
2022/01/28 04:00:31;;;;;;;;;;;;;;;7.78;60.37;102124.16;5027715;28;7209;-71
2022/01/28 04:03:13;;;;;;;;;;;;;;;7.78;61.10;102116.50;5008086;28;7409;-71
2022/01/28 04:13:49;;;;;;;;;;;;;;;7.74;60.12;102129.72;5051754;28;6823;-71
2022/01/28 04:18:49;;;;;;;;;;;;;;;7.74;60.87;102116.09;5024107;28;7027;-70
2022/01/28 04:21:15;;;;;;;;;;;;;;;7.72;60.92;102123.59;5026181;28;6894;-70
2022/01/28 04:23:41;;;;;;;;;;;;;;;7.71;60.89;102121.81;5023645;28;6784;-70
2022/01/28 04:26:07;;;;;;;;;;;;;;;7.70;61.40;102132.78;5027633;28;6974;-70
2022/01/28 04:28:33;;;;;;;;;;;;;;;7.69;60.88;102132.63;5004890;28;6776;-71
2022/01/28 04:30:58;;;;;;;;;;;;;;;7.69;60.41;102138.66;5025404;28;7223;-71
2022/01/28 04:33:24;;;;;;;;;;;;;;;7.69;60.75;102142.84;5023660;28;6815;-71
2022/01/28 04:35:53;;;;;;;;;;;;;;;7.68;60.89;102148.72;5007837;28;7303;-71
2022/01/28 04:38:35;;;;;;;;;;;;;;;7.67;60.86;102154.59;5027228;28;7393;-71
2022/01/28 04:42:10;;;;;;;;;;;;;;;7.64;61.23;102151.00;5039590;28;7025;-71
2022/01/28 04:44:05;;;;;;;;;;;;;;;7.62;60.67;102149.97;5022406;28;6963;-71
2022/01/28 04:46:48;;;;;;;;;;;;;;;7.62;61.28;102149.06;5039470;28;7200;-71
2022/01/28 04:49:21;;;;;;;;;;;;;;;7.60;60.78;102142.94;5019535;28;7054;-70
2022/01/28 04:54:51;;;;;;;;;;;;;;;7.59;61.29;102157.34;5033176;28;7045;-71
2022/01/28 04:57:34;;;;;;;;;;;;;;;7.61;61.87;102154.94;5023546;28;6835;-71
2022/01/28 05:08:09;;;;;;;;;;;;;;;7.70;61.38;102159.94;5039813;28;7170;-71
2022/01/28 05:28:59;;;;;;;;;;;;;;;7.75;61.42;102186.78;5020555;28;7896;-70
2022/01/28 05:31:25;;;;;;;;;;;;;;;7.73;61.70;102189.19;5023796;28;6945;-70
2022/01/28 05:33:51;;;;;;;;;;;;;;;7.73;61.45;102198.53;5007494;28;7140;-70
2022/01/28 05:36:17;;;;;;;;;;;;;;;7.72;61.05;102201.81;5037693;28;7860;-70
2022/01/28 05:38:43;;;;;;;;;;;;;;;7.70;60.88;102206.81;5030039;28;7047;-70
2022/01/28 05:41:09;;;;;;;;;;;;;;;7.71;61.82;102223.00;5030056;28;6820;-70
2022/01/28 05:43:35;;;;;;;;;;;;;;;7.70;61.98;102221.22;5023212;28;7013;-70
2022/01/28 05:46:00;;;;;;;;;;;;;;;7.70;61.66;102227.22;5020291;28;7851;-70
2022/01/28 05:48:26;;;;;;;;;;;;;;;7.69;60.64;102225.44;5037775;28;6795;-71
2022/01/28 05:50:52;;;;;;;;;;;;;;;7.69;61.49;102219.41;5021945;28;6779;-71
2022/01/28 05:53:18;;;;;;;;;;;;;;;7.66;60.77;102222.59;5039088;28;7285;-71
2022/01/28 05:55:43;;;;;;;;;;;;;;;7.66;61.37;102231.91;5041254;28;7323;-71
2022/01/28 05:58:09;;;;;;;;;;;;;;;7.68;61.41;102238.06;5013997;28;8023;-70
2022/01/28 06:00:34;;;;;;;;;;;;;;;7.72;62.08;102240.09;5046652;28;6946;-70
2022/01/28 06:03:00;;;;;;;;;;;;;;;7.80;61.64;102233.16;5027467;28;7622;-70
2022/01/28 06:05:30;;;;;;;;;;;;;;;7.86;62.34;102234.59;5031575;28;7321;-70
2022/01/28 06:07:57;;;;;;;;;;;;;;;7.95;62.36;102243.81;5033891;28;6904;-70
2022/01/28 06:10:23;;;;;;;;;;;;;;;7.99;62.27;102234.00;5025644;28;6804;-70
2022/01/28 06:12:48;;;;;;;;;;;;;;;8.03;61.57;102247.94;5031003;28;6784;-70
2022/01/28 06:15:14;;;;;;;;;;;;;;;8.08;61.11;102263.69;5035514;28;6807;-70
2022/01/28 06:17:41;;;;;;;;;;;;;;;8.10;62.24;102260.47;5038553;28;7206;-71
2022/01/28 06:20:10;;;;;;;;;;;;;;;8.12;61.13;102258.97;5022667;28;6796;-71
2022/01/28 06:22:44;;;;;;;;;;;;;;;8.13;61.84;102264.97;5045456;28;6899;-70
2022/01/28 06:25:13;;;;;;;;;;;;;;;8.10;60.70;102275.78;5021875;28;6946;-71
2022/01/28 06:27:40;;;;;;;;;;;;;;;8.09;60.91;102280.78;5042580;28;7329;-71
2022/01/28 06:30:07;;;;;;;;;;;;;;;8.10;62.21;102275.78;5037932;28;6819;-70
2022/01/28 06:32:33;;;;;;;;;;;;;;;8.09;61.20;102286.78;5012968;28;6816;-70
2022/01/28 06:35:00;;;;;;;;;;;;;;;8.05;61.06;102287.28;5020471;28;7277;-71
2022/01/28 06:37:27;;;;;;;;;;;;;;;8.00;61.24;102284.31;5025864;28;7045;-71
2022/01/28 06:39:53;;;;;;;;;;;;;;;7.96;61.56;102286.47;5043938;28;6795;-71
2022/01/28 06:42:19;;;;;;;;;;;;;;;7.92;61.23;102296.41;5018898;28;6924;-70
2022/01/28 06:44:44;;;;;;;;;;;;;;;7.89;61.24;102306.34;5016792;28;6961;-70
2022/01/28 06:47:11;;;;;;;;;;;;;;;7.83;61.32;102295.59;5035082;28;7003;-70
2022/01/28 06:49:38;;;;;;;;;;;;;;;7.80;60.71;102304.63;5023885;28;7091;-71
2022/01/28 06:52:05;;;;;;;;;;;;;;;7.73;60.87;102308.28;5021239;28;7212;-71
2022/01/28 06:54:32;;;;;;;;;;;;;;;7.66;60.34;102306.81;5040563;28;7057;-71
2022/01/28 06:56:57;;;;;;;;;;;;;;;7.62;61.56;102305.63;5024145;28;8476;-71
2022/01/28 06:59:23;;;;;;;;;;;;;;;7.57;60.80;102311.09;5013515;28;7856;-70
2022/01/28 07:01:49;;;;;;;;;;;;;;;7.50;60.75;102315.66;5040004;28;6812;-70
2022/01/28 07:04:15;;;;;;;;;;;;;;;7.46;61.64;102317.78;5038042;28;7458;-70
2022/01/28 07:06:41;;;;;;;;;;;;;;;7.42;60.80;102331.00;5024947;28;6827;-70
2022/01/28 07:09:07;;;;;;;;;;;;;;;7.38;61.49;102331.47;5003486;28;7233;-71
2022/01/28 07:11:33;;;;;;;;;;;;;;;7.34;61.51;102326.13;5037270;28;7480;-71
2022/01/28 07:13:59;;;;;;;;;;;;;;;7.31;61.79;102333.47;5026163;28;6887;-71
2022/01/28 07:16:25;;;;;;;;;;;;;;;7.26;61.47;102342.34;5038682;28;6974;-71
2022/01/28 07:18:50;;;;;;;;;;;;;;;7.22;61.12;102342.81;5024327;28;7173;-71
2022/01/28 07:21:16;;;;;;;;;;;;;;;7.18;60.69;102351.81;5036981;28;6878;-70
2022/01/28 07:23:42;;;;;;;;;;;;;;;7.15;61.71;102343.03;5037401;28;6929;-70
2022/01/28 07:26:07;;;;;;;;;;;;;;;7.11;61.82;102353.66;5025305;28;7253;-70
2022/01/28 07:28:35;;;;;;;;;;;;;;;7.09;61.88;102356.06;5036572;28;6866;-70
2022/01/28 07:31:01;;;;;;;;;;;;;;;7.07;61.71;102357.59;5039136;28;6903;-70
2022/01/28 07:33:26;;;;;;;;;;;;;;;7.05;62.05;102365.09;5036052;28;7346;-70
2022/01/28 07:35:52;;;;;;;;;;;;;;;7.04;62.08;102363.28;5021133;28;6801;-70
2022/01/28 07:38:17;;;;;;;;;;;;;;;7.03;62.47;102366.59;5012313;28;6819;-70
2022/01/28 07:40:43;;;;;;;;;;;;;;;7.03;61.85;102360.63;5024469;28;6807;-70
2022/01/28 07:43:09;;;;;;;;;;;;;;;7.06;62.12;102368.53;5021017;28;6815;-70
2022/01/28 07:45:35;;;;;;;;;;;;;;;7.08;61.96;102369.56;5021815;28;6788;-71
2022/01/28 07:48:01;;;;;;;;;;;;;;;7.09;62.22;102367.19;5028339;28;7358;-70
2022/01/28 07:50:26;;;;;;;;;;;;;;;7.10;62.26;102368.09;5033476;28;6855;-70
2022/01/28 07:52:52;;;;;;;;;;;;;;;7.14;62.11;102371.78;5042313;28;6882;-70
2022/01/28 07:55:18;;;;;;;;;;;;;;;7.16;62.06;102365.22;5025808;28;6815;-70
2022/01/28 07:57:45;;;;;;;;;;;;;;;7.17;62.56;102364.44;5040002;28;6799;-70
2022/01/28 08:00:13;;;;;;;;;;;;;;;7.20;62.79;102365.66;5042298;28;6811;-70
2022/01/28 08:02:42;;;;;;;;;;;;;;;7.23;62.61;102371.03;5031820;28;7000;-70
2022/01/28 08:05:09;;;;;;;;;;;;;;;7.25;61.95;102372.81;5034102;28;7238;-71
2022/01/28 08:07:35;;;;;;;;;;;;;;;7.26;62.53;102375.50;5034016;28;6811;-71
2022/01/28 08:10:01;;;;;;;;;;;;;;;7.29;61.96;102379.97;5040235;28;6866;-71
2022/01/28 08:12:26;;;;;;;;;;;;;;;7.31;62.47;102379.38;5050406;28;6994;-71
2022/01/28 08:14:52;;;;;;;;;;;;;;;7.32;62.78;102385.38;5039051;28;7430;-71
2022/01/28 08:17:18;;;;;;;;;;;;;;;7.33;62.45;102377.84;5007037;28;6914;-71
2022/01/28 08:19:43;;;;;;;;;;;;;;;7.35;62.71;102384.03;5037754;28;6823;-71
2022/01/28 08:22:09;;;;;;;;;;;;;;;7.36;62.36;102388.38;5023377;28;7015;-71
2022/01/28 08:24:35;;;;;;;;;;;;;;;7.39;61.99;102392.88;5037887;28;6823;-71
2022/01/28 08:27:01;;;;;;;;;;;;;;;7.42;62.20;102402.44;5033489;28;6802;-70
2022/01/28 08:29:26;;;;;;;;;;;;;;;7.45;62.66;102400.19;5041557;28;7003;-70
2022/01/28 08:31:52;;;;;;;;;;;;;;;7.47;62.99;102402.09;5037505;28;6887;-70
2022/01/28 08:34:18;;;;;;;;;;;;;;;7.51;61.99;102408.38;5066566;28;6871;-70
2022/01/28 08:36:44;;;;;;;;;;;;;;;7.55;62.84;102410.50;5023095;28;6780;-70
2022/01/28 08:39:10;;;;;;;;;;;;;;;7.58;62.59;102420.97;5030315;28;6815;-70
2022/01/28 08:41:39;;;;;;;;;;;;;;;7.61;62.19;102415.25;5023625;28;7133;-70
2022/01/28 08:44:05;;;;;;;;;;;;;;;7.64;63.21;102416.44;5028561;28;6910;-70
2022/01/28 08:46:32;;;;;;;;;;;;;;;7.68;62.21;102417.63;5035111;28;6831;-70
2022/01/28 08:48:58;;;;;;;;;;;;;;;7.72;62.64;102429.91;5022131;28;7242;-70
2022/01/28 08:51:23;;;;;;;;;;;;;;;7.77;62.13;102422.66;5025040;28;6799;-70
2022/01/28 08:53:49;;;;;;;;;;;;;;;7.82;62.15;102417.97;5019914;28;6967;-70
2022/01/28 08:56:15;;;;;;;;;;;;;;;7.87;62.89;102424.38;5031709;28;6847;-70
2022/01/28 08:58:41;;;;;;;;;;;;;;;7.90;63.17;102435.78;5034136;28;6951;-70
2022/01/28 09:01:06;;;;;;;;;;;;;;;7.96;62.89;102432.00;5032166;28;7848;-70
2022/01/28 09:03:33;;;;;;;;;;;;;;;8.01;61.97;102433.31;5030401;28;6846;-70
2022/01/28 09:05:59;;;;;;;;;;;;;;;8.04;62.05;102439.59;5041327;28;6831;-70
2022/01/28 09:08:25;;;;;;;;;;;;;;;8.10;62.69;102423.94;5029365;28;6906;-70
2022/01/28 09:10:59;;;;;;;;;;;;;;;8.15;62.19;102427.81;5042606;28;6779;-70
2022/01/28 09:13:37;;;;;;;;;;;;;;;8.22;62.96;102433.50;5033297;28;7214;-70
2022/01/28 09:16:04;;;;;;;;;;;;;;;8.27;62.35;102432.22;5033336;28;6823;-70
2022/01/28 09:18:29;;;;;;;;;;;;;;;8.32;61.71;102438.66;5030793;28;6921;-70
2022/01/28 09:20:56;;;;;;;;;;;;;;;8.37;62.31;102429.75;5028782;28;7553;-70
2022/01/28 09:23:23;;;;;;;;;;;;;;;8.42;62.63;102427.59;5024155;28;7272;-71
2022/01/28 09:25:49;;;;;;;;;;;;;;;8.47;62.93;102432.34;5029005;28;6788;-70
2022/01/28 09:28:15;;;;;;;;;;;;;;;8.53;62.39;102432.03;5030908;28;6831;-70
2022/01/28 09:30:41;;;;;;;;;;;;;;;8.60;62.39;102425.84;5023590;28;7339;-70
2022/01/28 09:33:08;;;;;;;;;;;;;;;8.65;61.82;102421.13;5039360;28;6788;-70
2022/01/28 09:35:34;;;;;;;;;;;;;;;8.71;62.18;102426.75;5025060;28;7267;-70
2022/01/28 09:38:01;;;;;;;;;;;;;;;8.78;62.92;102423.06;5025042;28;6887;-70
2022/01/28 09:40:27;;;;;;;;;;;;;;;8.84;61.44;102423.63;5022204;28;7200;-70
2022/01/28 09:42:54;;;;;;;;;;;;;;;8.91;61.83;102427.59;5026471;28;6796;-70
2022/01/28 09:45:24;;;;;;;;;;;;;;;8.98;62.56;102430.84;5044326;28;8050;-70
2022/01/28 09:47:53;;;;;;;;;;;;;;;9.06;61.41;102440.84;5058275;28;6889;-70
2022/01/28 09:50:24;;;;;;;;;;;;;;;9.13;61.46;102448.28;5027142;28;6833;-70
2022/01/28 09:52:52;;;;;;;;;;;;;;;9.21;61.44;102452.41;5008181;28;7150;-70
2022/01/28 09:55:20;;;;;;;;;;;;;;;9.28;61.91;102454.75;5026609;28;6804;-70
2022/01/28 09:57:52;;;;;;;;;;;;;;;9.36;61.99;102457.03;5028160;28;6911;-70
2022/01/28 10:00:21;;;;;;;;;;;;;;;9.43;61.67;102449.13;5027875;28;6804;-70
2022/01/28 10:03:08;;;;;;;;;;;;;;;9.49;61.66;102444.53;5026765;28;8110;-70
2022/01/28 10:05:40;;;;;;;;;;;;;;;9.57;60.73;102452.88;5034460;28;6800;-70
2022/01/28 10:08:19;;;;;;;;;;;;;;;9.63;60.65;102448.28;5022668;28;7074;-70
2022/01/28 10:11:08;;;;;;;;;;;;;;;9.70;60.70;102450.56;5018685;28;6839;-70
2022/01/28 10:13:55;;;;;;;;;;;;;;;9.77;60.65;102457.13;5025716;28;7919;-70
2022/01/28 10:16:26;;;;;;;;;;;;;;;9.84;60.71;102464.53;5035730;28;7933;-70
2022/01/28 10:18:57;;;;;;;;;;;;;;;9.93;61.52;102464.44;5025434;28;7168;-70
2022/01/28 10:21:40;;;;;;;;;;;;;;;10.11;60.95;102470.19;5018855;28;6811;-70
2022/01/28 10:24:28;;;;;;;;;;;;;;;10.88;60.88;102468.66;5022138;28;6997;-70
2022/01/28 10:27:07;;;;;;;;;;;;;;;11.94;59.00;102472.50;5038726;28;7064;-70
2022/01/28 10:29:37;;;;;;;;;;;;;;;12.95;57.96;102466.13;5006979;28;7007;-70
2022/01/28 10:32:11;;;;;;;;;;;;;;;13.89;56.76;102448.53;5014383;28;6811;-70
2022/01/28 10:34:47;;;;;;;;;;;;;;;14.74;54.27;102442.88;5022163;28;9272;-70
2022/01/28 10:37:30;;;;;;;;;;;;;;;15.45;53.49;102445.47;5009767;28;6824;-70
2022/01/28 10:40:00;;;;;;;;;;;;;;;16.07;51.91;102431.91;5035648;28;7071;-70
2022/01/28 10:42:28;;;;;;;;;;;;;;;16.64;50.83;102439.44;5014828;28;6828;-70
2022/01/28 10:45:13;;;;;;;;;;;;;;;17.27;49.70;102443.69;5036322;28;6919;-70
2022/01/28 10:47:49;;;;;;;;;;;;;;;17.76;48.67;102440.16;5010872;28;7443;-70
2022/01/28 10:50:22;;;;;;;;;;;;;;;17.92;47.29;102446.13;4996439;28;7234;-70
2022/01/28 10:53:05;;;;;;;;;;;;;;;17.82;46.99;102437.00;5036350;28;6827;-70
2022/01/28 10:55:35;;;;;;;;;;;;;;;17.60;47.01;102441.09;5037578;28;6827;-70
2022/01/28 10:58:09;;;;;;;;;;;;;;;17.30;47.32;102450.72;5019231;28;6819;-70
2022/01/28 11:00:39;;;;;;;;;;;;;;;16.96;47.81;102447.19;5032158;28;7130;-71
2022/01/28 11:03:08;;;;;;;;;;;;;;;16.93;47.84;102439.25;5018008;28;7362;-71
2022/01/28 11:05:36;;;;;;;;;;;;;;;16.90;47.20;102439.06;5000142;28;6860;-70
2022/01/28 11:08:07;;;;;;;;;;;;;;;16.70;47.42;102440.59;5034927;28;7154;-70
2022/01/28 11:10:32;;;;;;;;;;;;;;;16.87;47.42;102438.91;5021242;28;7399;-70
2022/01/28 11:13:00;;;;;;;;;;;;;;;17.32;46.97;102437.06;5018079;28;7216;-70
2022/01/28 11:15:29;;;;;;;;;;;;;;;17.89;46.21;102439.09;5023728;28;6823;-70
2022/01/28 11:17:57;;;;;;;;;;;;;;;18.32;45.19;102440.34;5024937;28;7339;-70
2022/01/28 11:20:32;;;;;;;;;;;;;;;18.57;44.82;102435.44;5020180;28;7115;-71
2022/01/28 11:23:38;;;;;;;;;;;;;;;18.56;43.95;102428.47;5015458;28;6816;-71
2022/01/28 11:26:28;;;;;;;;;;;;;;;17.77;44.67;102431.56;5014229;28;7016;-71
2022/01/28 11:28:57;;;;;;;;;;;;;;;17.14;45.40;102433.47;5028975;28;7892;-71
2022/01/28 11:31:58;;;;;;;;;;;;;;;17.09;45.76;102430.66;5026418;28;7571;-70
2022/01/28 11:34:30;;;;;;;;;;;;;;;17.39;44.96;102435.66;5029292;28;7366;-70
2022/01/28 11:37:19;;;;;;;;;;;;;;;17.42;44.50;102429.75;5029751;28;6895;-71
2022/01/28 11:39:47;;;;;;;;;;;;;;;17.40;44.80;102431.38;5006920;28;6918;-70
2022/01/28 11:42:25;;;;;;;;;;;;;;;17.63;44.66;102442.97;5027125;28;6823;-70
2022/01/28 11:44:51;;;;;;;;;;;;;;;17.67;44.15;102425.81;5030338;28;6986;-70
2022/01/28 11:47:31;;;;;;;;;;;;;;;17.63;44.45;102417.91;5026003;28;6783;-70
2022/01/28 11:50:18;;;;;;;;;;;;;;;17.89;43.82;102418.34;5000632;28;6996;-70
2022/01/28 11:52:50;;;;;;;;;;;;;;;17.90;43.37;102404.53;5015258;28;7209;-71
2022/01/28 11:55:25;;;;;;;;;;;;;;;18.20;42.89;102397.34;5020773;28;6824;-71
2022/01/28 11:58:04;;;;;;;;;;;;;;;18.43;42.42;102401.91;5037610;28;6866;-71
2022/01/28 12:00:44;;;;;;;;;;;;;;;18.08;42.32;102395.94;5034566;28;6986;-70
2022/01/28 12:03:29;;;;;;;;;;;;;;;17.57;43.41;102403.75;5041721;28;6803;-71
2022/01/28 12:06:05;;;;;;;;;;;;;;;16.98;43.57;102396.34;5057781;28;7288;-71
2022/01/28 12:08:32;;;;;;;;;;;;;;;16.31;44.07;102392.75;5024450;28;7713;-71
2022/01/28 12:11:01;;;;;;;;;;;;;;;15.77;45.19;102398.28;5026125;28;6973;-71
2022/01/28 12:13:46;;;;;;;;;;;;;;;15.41;45.73;102396.19;5037062;28;6919;-71
2022/01/28 12:16:35;;;;;;;;;;;;;;;15.19;46.26;102403.47;5041887;28;6899;-71
2022/01/28 12:19:02;;;;;;;;;;;;;;;15.27;47.25;102400.53;5008140;28;7339;-71
2022/01/28 12:21:37;;;;;;;;;;;;;;;15.73;46.68;102387.66;5029672;28;6853;-71
2022/01/28 12:24:18;;;;;;;;;;;;;;;16.22;45.48;102385.38;5005879;28;7064;-70
2022/01/28 12:27:01;;;;;;;;;;;;;;;16.21;45.07;102393.03;5035487;28;6819;-71
2022/01/28 12:29:52;;;;;;;;;;;;;;;15.84;45.29;102391.78;5033598;28;6824;-71
2022/01/28 12:32:25;;;;;;;;;;;;;;;15.33;45.83;102394.84;5027017;28;7736;-71
2022/01/28 12:34:51;;;;;;;;;;;;;;;15.02;46.84;102392.97;5044498;28;6993;-71
2022/01/28 12:37:22;;;;;;;;;;;;;;;14.76;47.02;102394.81;5027173;28;7896;-71
2022/01/28 12:40:02;;;;;;;;;;;;;;;14.47;47.38;102392.97;5036597;28;6955;-71
2022/01/28 12:42:32;;;;;;;;;;;;;;;14.20;47.34;102386.13;5023783;28;7080;-71
2022/01/28 12:45:00;;;;;;;;;;;;;;;13.95;48.60;102391.34;5008028;28;6831;-71
2022/01/28 12:47:32;;;;;;;;;;;;;;;13.78;49.49;102382.50;5024872;28;7027;-71
2022/01/28 12:50:03;;;;;;;;;;;;;;;13.69;48.63;102388.81;5002216;28;6832;-70
2022/01/28 12:52:36;;;;;;;;;;;;;;;13.53;48.59;102391.19;5025235;28;7237;-71
2022/01/28 12:55:04;;;;;;;;;;;;;;;13.32;49.02;102391.44;5044242;28;6808;-71
2022/01/28 12:57:29;;;;;;;;;;;;;;;13.08;49.82;102388.97;5040573;28;6823;-71
2022/01/28 12:59:55;;;;;;;;;;;;;;;12.90;50.25;102389.47;5023122;28;6800;-71
2022/01/28 13:02:21;;;;;;;;;;;;;;;12.83;50.60;102386.38;5025602;28;7216;-71
2022/01/28 13:10:25;;;;;;;;;;;;;;;13.23;50.94;102377.94;5025652;28;7215;-71
2022/01/28 13:12:55;;;;;;;;;;;;;;;13.24;50.46;102369.44;5025969;28;7233;-71
2022/01/28 13:15:20;;;;;;;;;;;;;;;13.14;49.68;102370.47;5028099;28;6827;-71
2022/01/28 13:17:56;;;;;;;;;;;;;;;12.98;50.77;102371.97;5034345;28;6988;-70
2022/01/28 13:20:24;;;;;;;;;;;;;;;12.81;50.44;102365.66;5014468;28;7040;-70
2022/01/28 13:22:52;;;;;;;;;;;;;;;12.64;50.68;102365.34;5019885;28;6992;-70
2022/01/28 13:25:26;;;;;;;;;;;;;;;12.45;50.82;102360.59;5017752;28;8392;-71
2022/01/28 13:27:58;;;;;;;;;;;;;;;12.29;50.74;102366.31;5006970;28;6986;-71
2022/01/28 13:30:25;;;;;;;;;;;;;;;12.12;51.15;102356.47;4999046;28;7892;-71
2022/01/28 13:33:00;;;;;;;;;;;;;;;11.97;51.90;102349.38;5014475;28;6819;-70
2022/01/28 13:35:26;;;;;;;;;;;;;;;11.84;52.13;102344.13;5020270;28;7305;-70
2022/01/28 13:37:56;;;;;;;;;;;;;;;11.73;51.85;102346.78;5053982;28;6816;-70
2022/01/28 13:40:21;;;;;;;;;;;;;;;11.59;52.40;102350.00;5037544;28;6997;-70
2022/01/28 13:43:10;;;;;;;;;;;;;;;11.48;52.55;102344.94;5035812;28;6803;-70
2022/01/28 13:45:56;;;;;;;;;;;;;;;11.44;53.11;102339.47;5020301;28;6815;-70
2022/01/28 13:48:38;;;;;;;;;;;;;;;11.44;53.37;102340.38;5036080;28;7295;-71
2022/01/28 13:51:17;;;;;;;;;;;;;;;11.46;53.29;102332.78;5019470;28;7145;-71
2022/01/28 13:56:38;;;;;;;;;;;;;;;11.46;53.75;102327.66;5037764;28;6864;-70
2022/01/28 13:59:17;;;;;;;;;;;;;;;11.47;54.24;102317.47;5033695;28;7038;-70
2022/01/28 14:01:50;;;;;;;;;;;;;;;11.50;53.78;102314.25;5015789;28;7892;-70
2022/01/28 14:04:33;;;;;;;;;;;;;;;11.51;53.75;102310.91;5019904;28;6828;-70
2022/01/28 14:07:26;;;;;;;;;;;;;;;11.55;54.09;102314.59;5028081;28;6820;-70
2022/01/28 14:10:01;;;;;;;;;;;;;;;11.58;54.23;102308.03;5014710;28;6998;-70
2022/01/28 14:12:42;;;;;;;;;;;;;;;11.64;53.97;102316.19;5004235;28;6994;-70
2022/01/28 14:15:38;;;;;;;;;;;;;;;11.69;53.95;102305.34;5029595;28;7303;-70
2022/01/28 14:18:05;;;;;;;;;;;;;;;11.68;53.68;102301.88;5035598;28;6997;-70
2022/01/28 14:20:31;;;;;;;;;;;;;;;11.67;53.36;102303.56;5025038;28;7034;-70
2022/01/28 14:22:58;;;;;;;;;;;;;;;11.64;53.21;102310.16;5024533;28;6919;-70
2022/01/28 14:25:24;;;;;;;;;;;;;;;11.59;53.29;102316.59;5033051;28;6823;-70
2022/01/28 14:28:24;;;;;;;;;;;;;;;11.55;53.80;102315.50;5039457;28;6787;-70
2022/01/28 14:30:44;;;;;;;;;;;;;;;11.49;53.93;102315.94;5035962;28;6948;-70
2022/01/28 14:33:11;;;;;;;;;;;;;;;11.45;53.63;102324.19;5030263;28;6945;-70
2022/01/28 14:35:39;;;;;;;;;;;;;;;11.38;54.09;102312.56;5006468;28;7066;-70
2022/01/28 14:38:05;;;;;;;;;;;;;;;11.31;53.62;102312.88;5022527;28;6823;-70
2022/01/28 14:40:31;;;;;;;;;;;;;;;11.22;53.35;102327.56;5036468;28;7269;-70